Time;durP1;ratioP1;P1;durP2;ratioP2;P2;SDS_P1;SDS_P2;PMS_P1;PMS_P2;Temp;Humidity;BMP_temperature;BMP_pressure;BME280_temperature;BME280_humidity;BME280_pressure;Samples;Min_cycle;Max_cycle;Signal;HPM_P1;HPM_P2
2023/03/27 00:02:23;;;;;;;3.07;1.30;;;;;;;;;;5021454;28;20239;-51
2023/03/27 00:04:53;;;;;;;3.90;1.33;;;;;;;;;;5021350;28;20269;-51
2023/03/27 00:07:20;;;;;;;4.17;1.57;;;;;;;;;;5023154;28;20241;-52
2023/03/27 00:09:46;;;;;;;5.23;1.80;;;;;;;;;;5017017;28;20230;-52
2023/03/27 00:12:13;;;;;;;6.27;1.87;;;;;;;;;;5006632;28;20717;-51
2023/03/27 00:14:40;;;;;;;3.77;1.70;;;;;;;;;;5015437;28;20290;-51
2023/03/27 00:17:06;;;;;;;2.17;1.40;;;;;;;;;;5002974;28;20245;-52
2023/03/27 00:19:33;;;;;;;2.77;1.27;;;;;;;;;;5005941;28;20232;-51
2023/03/27 00:22:01;;;;;;;3.27;1.73;;;;;;;;;;5027123;28;20236;-51
2023/03/27 00:24:27;;;;;;;2.27;1.37;;;;;;;;;;5011824;28;20321;-51
2023/03/27 00:26:55;;;;;;;3.50;2.07;;;;;;;;;;5011355;28;20236;-51
2023/03/27 00:29:21;;;;;;;5.40;1.97;;;;;;;;;;5012121;28;20437;-51
2023/03/27 00:31:48;;;;;;;6.63;1.90;;;;;;;;;;5003025;28;20662;-51
2023/03/27 00:34:14;;;;;;;5.13;1.93;;;;;;;;;;5005376;28;20811;-51
2023/03/27 00:36:42;;;;;;;3.23;1.60;;;;;;;;;;5004688;28;20778;-51
2023/03/27 00:39:10;;;;;;;7.40;1.83;;;;;;;;;;5004209;28;20244;-51
2023/03/27 00:41:37;;;;;;;4.13;1.93;;;;;;;;;;5008681;28;20268;-50
2023/03/27 00:44:20;;;;;;;4.53;1.83;;;;;;;;;;5006296;28;20252;-51
2023/03/27 00:46:48;;;;;;;4.33;1.87;;;;;;;;;;5008743;28;20308;-51
2023/03/27 00:49:16;;;;;;;3.73;1.50;;;;;;;;;;5012263;28;20248;-52
2023/03/27 00:51:45;;;;;;;3.53;1.70;;;;;;;;;;5023607;28;20400;-52
2023/03/27 00:54:15;;;;;;;4.97;2.50;;;;;;;;;;5028244;28;20262;-52
2023/03/27 00:56:41;;;;;;;6.90;2.23;;;;;;;;;;5022812;28;20224;-52
2023/03/27 00:59:10;;;;;;;2.20;1.57;;;;;;;;;;5023682;28;20884;-53
2023/03/27 01:01:37;;;;;;;4.03;1.87;;;;;;;;;;5027785;28;20260;-51
2023/03/27 01:04:06;;;;;;;2.73;1.47;;;;;;;;;;5015668;28;20240;-51
2023/03/27 01:06:32;;;;;;;2.87;1.53;;;;;;;;;;5019566;28;20224;-51
2023/03/27 01:08:59;;;;;;;4.77;1.63;;;;;;;;;;5005688;28;20235;-52
2023/03/27 01:11:36;;;;;;;5.57;2.00;;;;;;;;;;5022645;28;20236;-51
2023/03/27 01:14:09;;;;;;;6.03;1.80;;;;;;;;;;5018349;28;20238;-53
2023/03/27 01:16:40;;;;;;;2.77;1.83;;;;;;;;;;5019945;28;20259;-52
2023/03/27 01:19:20;;;;;;;4.00;2.67;;;;;;;;;;5006618;28;20240;-52
2023/03/27 01:22:00;;;;;;;3.30;2.00;;;;;;;;;;5006040;28;20569;-51
2023/03/27 01:24:40;;;;;;;3.90;1.87;;;;;;;;;;5009760;28;20232;-52
2023/03/27 01:27:14;;;;;;;2.50;1.43;;;;;;;;;;5023189;28;20235;-51
2023/03/27 01:29:46;;;;;;;3.23;1.80;;;;;;;;;;5016228;28;20228;-51
2023/03/27 01:32:31;;;;;;;2.07;1.87;;;;;;;;;;5022831;28;20254;-51
2023/03/27 01:35:10;;;;;;;2.40;1.43;;;;;;;;;;5006000;28;20259;-53
2023/03/27 01:37:54;;;;;;;4.60;1.60;;;;;;;;;;5015414;28;20229;-51
2023/03/27 01:40:25;;;;;;;6.17;1.80;;;;;;;;;;5009236;28;20276;-53
2023/03/27 01:42:55;;;;;;;3.43;1.87;;;;;;;;;;5010675;28;20249;-51
2023/03/27 01:45:24;;;;;;;2.63;1.27;;;;;;;;;;5024196;28;20311;-51
2023/03/27 01:47:53;;;;;;;5.57;1.90;;;;;;;;;;5030624;28;20231;-52
2023/03/27 01:50:20;;;;;;;5.30;1.53;;;;;;;;;;5019067;28;20240;-51
2023/03/27 01:52:50;;;;;;;5.00;1.80;;;;;;;;;;5010423;28;20279;-51
2023/03/27 01:55:22;;;;;;;1.50;1.37;;;;;;;;;;5023465;28;20235;-51
2023/03/27 01:57:52;;;;;;;2.57;1.43;;;;;;;;;;4992301;28;20228;-51
2023/03/27 02:00:21;;;;;;;1.87;1.60;;;;;;;;;;5017915;28;20294;-52
2023/03/27 02:02:51;;;;;;;2.67;2.00;;;;;;;;;;5025814;28;20690;-53
2023/03/27 02:05:21;;;;;;;1.57;1.47;;;;;;;;;;5023613;28;20306;-52
2023/03/27 02:07:52;;;;;;;4.00;1.70;;;;;;;;;;5029546;28;20882;-51
2023/03/27 02:10:21;;;;;;;4.03;1.57;;;;;;;;;;5018776;28;20302;-51
2023/03/27 02:12:49;;;;;;;2.73;1.67;;;;;;;;;;5008415;28;20240;-51
2023/03/27 02:15:19;;;;;;;2.13;1.93;;;;;;;;;;5016262;28;20619;-51
2023/03/27 02:17:47;;;;;;;1.97;1.40;;;;;;;;;;5011139;28;20708;-51
2023/03/27 02:20:15;;;;;;;2.93;2.00;;;;;;;;;;5004679;28;20251;-51
2023/03/27 02:22:42;;;;;;;3.43;1.50;;;;;;;;;;5008055;28;20320;-52
2023/03/27 02:25:25;;;;;;;1.80;1.40;;;;;;;;;;5030161;28;20275;-51
2023/03/27 02:27:56;;;;;;;1.60;1.30;;;;;;;;;;5016056;28;20262;-51
2023/03/27 02:30:26;;;;;;;1.93;1.70;;;;;;;;;;5020086;28;20325;-51
2023/03/27 02:32:57;;;;;;;6.37;2.93;;;;;;;;;;5014785;28;20252;-51
2023/03/27 02:35:29;;;;;;;2.00;1.20;;;;;;;;;;5018996;28;20231;-51
2023/03/27 02:38:00;;;;;;;3.67;1.40;;;;;;;;;;5023515;28;20240;-50
2023/03/27 02:40:33;;;;;;;1.50;1.40;;;;;;;;;;5027195;28;20263;-50
2023/03/27 02:43:03;;;;;;;1.27;1.17;;;;;;;;;;5027254;28;20290;-51
2023/03/27 02:45:37;;;;;;;1.50;1.20;;;;;;;;;;5026042;28;20239;-52
2023/03/27 02:48:06;;;;;;;1.53;1.00;;;;;;;;;;5025349;28;20243;-51
2023/03/27 02:50:37;;;;;;;5.47;1.20;;;;;;;;;;5024839;28;20249;-52
2023/03/27 02:53:04;;;;;;;2.80;1.33;;;;;;;;;;5030974;28;20228;-51
2023/03/27 02:55:33;;;;;;;3.23;1.27;;;;;;;;;;5026591;28;20329;-51
2023/03/27 02:58:01;;;;;;;1.00;0.97;;;;;;;;;;5005566;28;20232;-51
2023/03/27 03:00:29;;;;;;;1.47;0.93;;;;;;;;;;5008065;28;20233;-51
2023/03/27 03:03:00;;;;;;;1.20;0.90;;;;;;;;;;4996186;28;20238;-51
2023/03/27 03:05:26;;;;;;;1.07;1.00;;;;;;;;;;5014861;28;20299;-51
2023/03/27 03:07:56;;;;;;;1.23;1.00;;;;;;;;;;5018775;28;20235;-51
2023/03/27 03:10:23;;;;;;;2.33;1.30;;;;;;;;;;5016188;28;20734;-51
2023/03/27 03:12:50;;;;;;;2.00;1.10;;;;;;;;;;5005357;28;20228;-52
2023/03/27 03:15:17;;;;;;;1.33;1.10;;;;;;;;;;5006956;28;20235;-50
2023/03/27 03:17:43;;;;;;;3.80;1.40;;;;;;;;;;5006295;28;20286;-51
2023/03/27 03:20:12;;;;;;;0.90;0.90;;;;;;;;;;5004525;28;20243;-51
2023/03/27 03:22:39;;;;;;;1.17;1.03;;;;;;;;;;5035135;28;20272;-51
2023/03/27 03:25:06;;;;;;;1.30;1.20;;;;;;;;;;5027090;28;20255;-52
2023/03/27 03:27:33;;;;;;;1.23;1.10;;;;;;;;;;5012343;28;20232;-52
2023/03/27 03:29:59;;;;;;;1.57;1.20;;;;;;;;;;5015953;28;20232;-52
2023/03/27 03:32:26;;;;;;;2.07;1.40;;;;;;;;;;5030755;28;20231;-51
2023/03/27 03:34:53;;;;;;;1.53;1.13;;;;;;;;;;5031948;28;20249;-52
2023/03/27 03:37:20;;;;;;;1.47;1.37;;;;;;;;;;5031168;28;20626;-51
2023/03/27 03:39:47;;;;;;;4.30;1.57;;;;;;;;;;5029430;28;20227;-52
2023/03/27 03:42:13;;;;;;;3.33;1.10;;;;;;;;;;5034484;28;20239;-55
2023/03/27 03:44:40;;;;;;;3.43;1.40;;;;;;;;;;5032355;28;20242;-53
2023/03/27 03:47:07;;;;;;;1.93;1.10;;;;;;;;;;5035676;28;20240;-51
2023/03/27 03:49:33;;;;;;;4.97;1.57;;;;;;;;;;5041068;28;20254;-52
2023/03/27 03:52:00;;;;;;;1.87;1.27;;;;;;;;;;5035257;28;20227;-51
2023/03/27 03:54:28;;;;;;;2.87;1.50;;;;;;;;;;5034479;28;20737;-50
2023/03/27 03:56:54;;;;;;;2.90;1.63;;;;;;;;;;5029302;28;20244;-58
2023/03/27 03:59:21;;;;;;;2.97;1.83;;;;;;;;;;5022559;28;20232;-51
2023/03/27 04:01:47;;;;;;;1.57;1.47;;;;;;;;;;5027527;28;20687;-52
2023/03/27 04:04:14;;;;;;;3.03;1.77;;;;;;;;;;5028378;28;20737;-51
2023/03/27 04:06:42;;;;;;;4.53;1.87;;;;;;;;;;5026622;28;20282;-50
2023/03/27 04:09:08;;;;;;;2.10;1.63;;;;;;;;;;5024296;28;20266;-51
2023/03/27 04:11:36;;;;;;;1.87;1.50;;;;;;;;;;5022916;28;20309;-52
2023/03/27 04:14:03;;;;;;;3.40;1.30;;;;;;;;;;5025823;28;20242;-52
2023/03/27 04:16:29;;;;;;;1.43;1.33;;;;;;;;;;5024579;28;20708;-53
2023/03/27 04:18:56;;;;;;;2.43;1.27;;;;;;;;;;5024883;28;20240;-51
2023/03/27 04:21:25;;;;;;;1.07;1.00;;;;;;;;;;5022339;28;20322;-51
2023/03/27 04:23:52;;;;;;;1.70;0.97;;;;;;;;;;5025231;28;20285;-52
2023/03/27 04:26:25;;;;;;;1.00;0.97;;;;;;;;;;5024279;28;20437;-51
2023/03/27 04:28:53;;;;;;;1.47;1.23;;;;;;;;;;5022571;28;20284;-51
2023/03/27 04:31:19;;;;;;;1.33;1.23;;;;;;;;;;5023488;28;20437;-52
2023/03/27 04:33:50;;;;;;;1.40;1.23;;;;;;;;;;5023451;28;20240;-51
2023/03/27 04:36:17;;;;;;;1.40;1.30;;;;;;;;;;5025039;28;20297;-52
2023/03/27 04:38:44;;;;;;;2.73;1.17;;;;;;;;;;5017788;28;20640;-52
2023/03/27 04:41:11;;;;;;;1.07;1.00;;;;;;;;;;5025360;28;20270;-53
2023/03/27 04:43:38;;;;;;;1.50;1.33;;;;;;;;;;5025840;28;20235;-52
2023/03/27 04:46:07;;;;;;;1.70;1.60;;;;;;;;;;5025708;28;20223;-51
2023/03/27 04:48:36;;;;;;;1.50;1.40;;;;;;;;;;5022739;28;20321;-52
2023/03/27 04:51:03;;;;;;;1.40;1.30;;;;;;;;;;5023460;28;20317;-51
2023/03/27 04:53:31;;;;;;;3.77;1.43;;;;;;;;;;5026265;28;20274;-53
2023/03/27 04:55:57;;;;;;;1.43;1.30;;;;;;;;;;5024341;28;20247;-51
2023/03/27 04:58:25;;;;;;;4.03;1.50;;;;;;;;;;5025809;28;20251;-51
2023/03/27 05:00:54;;;;;;;5.40;1.77;;;;;;;;;;5027143;28;20327;-51
2023/03/27 05:03:22;;;;;;;1.77;1.20;;;;;;;;;;5028952;28;20236;-52
2023/03/27 05:05:49;;;;;;;2.30;1.87;;;;;;;;;;5020749;28;20319;-51
2023/03/27 05:08:16;;;;;;;1.43;1.33;;;;;;;;;;5017604;28;20261;-51
2023/03/27 05:10:43;;;;;;;3.93;1.23;;;;;;;;;;5016673;28;20232;-52
2023/03/27 05:13:11;;;;;;;4.90;1.60;;;;;;;;;;5022111;28;20235;-51
2023/03/27 05:15:37;;;;;;;2.77;1.53;;;;;;;;;;5028039;28;20247;-50
2023/03/27 05:18:05;;;;;;;3.43;1.57;;;;;;;;;;5026982;28;20238;-50
2023/03/27 05:20:34;;;;;;;1.30;1.20;;;;;;;;;;5020572;28;20711;-51
2023/03/27 05:23:00;;;;;;;1.87;1.50;;;;;;;;;;5026071;28;20223;-52
2023/03/27 05:25:27;;;;;;;1.57;1.33;;;;;;;;;;5029803;28;20242;-51
2023/03/27 05:27:54;;;;;;;2.43;1.33;;;;;;;;;;5025747;28;20555;-51
2023/03/27 05:30:22;;;;;;;1.20;1.20;;;;;;;;;;5019940;28;20638;-51
2023/03/27 05:32:50;;;;;;;1.13;1.03;;;;;;;;;;5019484;28;20255;-50
2023/03/27 05:35:18;;;;;;;3.33;1.40;;;;;;;;;;5023045;28;20227;-51
2023/03/27 05:37:47;;;;;;;3.63;1.00;;;;;;;;;;5032734;28;20290;-52
2023/03/27 05:40:15;;;;;;;1.93;1.10;;;;;;;;;;5026838;28;20313;-51
2023/03/27 05:42:42;;;;;;;1.47;1.37;;;;;;;;;;5031942;28;20232;-52
2023/03/27 05:45:09;;;;;;;1.47;1.37;;;;;;;;;;5022452;28;20232;-51
2023/03/27 05:47:43;;;;;;;2.77;1.40;;;;;;;;;;5014505;28;20239;-52
2023/03/27 05:50:09;;;;;;;2.43;1.70;;;;;;;;;;5022665;28;20275;-52
2023/03/27 05:52:36;;;;;;;1.63;1.53;;;;;;;;;;5019919;28;20224;-51
2023/03/27 05:55:05;;;;;;;1.70;1.60;;;;;;;;;;5018422;28;20235;-51
2023/03/27 05:57:32;;;;;;;6.13;1.73;;;;;;;;;;5012327;28;20289;-51
2023/03/27 05:59:59;;;;;;;1.87;1.53;;;;;;;;;;5019343;28;20243;-51
2023/03/27 06:02:26;;;;;;;1.63;1.53;;;;;;;;;;5034766;28;20231;-51
2023/03/27 06:04:53;;;;;;;2.13;1.70;;;;;;;;;;5035445;28;20246;-50
2023/03/27 06:07:19;;;;;;;1.67;1.57;;;;;;;;;;5024632;28;20244;-52
2023/03/27 06:09:46;;;;;;;1.87;1.47;;;;;;;;;;5019239;28;20232;-51
2023/03/27 06:12:15;;;;;;;3.40;1.50;;;;;;;;;;5025145;28;20756;-52
2023/03/27 06:14:42;;;;;;;3.83;1.47;;;;;;;;;;5030558;28;20752;-52
2023/03/27 06:17:08;;;;;;;1.33;1.23;;;;;;;;;;5031387;28;20266;-52
2023/03/27 06:19:35;;;;;;;2.00;1.53;;;;;;;;;;5022701;28;20320;-50
2023/03/27 06:22:02;;;;;;;2.23;1.30;;;;;;;;;;5025287;28;20631;-51
2023/03/27 06:24:28;;;;;;;1.53;1.43;;;;;;;;;;5023803;28;20235;-51
2023/03/27 06:26:55;;;;;;;4.50;1.50;;;;;;;;;;5017175;28;20385;-52
2023/03/27 06:29:23;;;;;;;1.50;1.27;;;;;;;;;;5024317;28;20353;-51
2023/03/27 06:31:50;;;;;;;4.27;1.97;;;;;;;;;;5026282;28;20323;-51
2023/03/27 06:34:17;;;;;;;1.87;1.50;;;;;;;;;;5024579;28;20799;-51
2023/03/27 06:36:44;;;;;;;1.53;1.43;;;;;;;;;;5030473;28;20253;-52
2023/03/27 06:39:10;;;;;;;2.43;1.80;;;;;;;;;;5030474;28;20240;-52
2023/03/27 06:41:37;;;;;;;2.63;1.47;;;;;;;;;;5026358;28;20239;-53
2023/03/27 06:44:04;;;;;;;4.43;1.30;;;;;;;;;;5030452;28;20239;-52
2023/03/27 06:46:32;;;;;;;2.00;1.47;;;;;;;;;;5027926;28;20239;-52
2023/03/27 06:48:58;;;;;;;4.73;1.40;;;;;;;;;;5027015;28;20239;-54
2023/03/27 06:51:25;;;;;;;1.57;1.47;;;;;;;;;;5025305;28;20235;-52
2023/03/27 06:53:52;;;;;;;2.10;1.70;;;;;;;;;;5027909;28;20677;-53
2023/03/27 06:56:19;;;;;;;2.90;1.30;;;;;;;;;;5025153;28;20262;-52
2023/03/27 06:58:46;;;;;;;1.63;1.50;;;;;;;;;;5025624;28;20664;-55
2023/03/27 07:01:12;;;;;;;2.13;1.47;;;;;;;;;;5025465;28;20235;-52
2023/03/27 07:03:40;;;;;;;3.50;1.77;;;;;;;;;;5027580;28;20228;-51
2023/03/27 07:06:07;;;;;;;3.17;1.70;;;;;;;;;;5027296;28;20243;-52
2023/03/27 07:08:33;;;;;;;2.00;1.60;;;;;;;;;;5041070;28;20825;-51
2023/03/27 07:11:00;;;;;;;2.33;2.03;;;;;;;;;;5028206;28;20356;-51
2023/03/27 07:13:27;;;;;;;1.60;1.50;;;;;;;;;;5030209;28;20724;-54
2023/03/27 07:15:54;;;;;;;2.60;1.37;;;;;;;;;;5022487;28;20235;-52
2023/03/27 07:18:21;;;;;;;2.30;1.83;;;;;;;;;;5030070;28;20268;-61
2023/03/27 07:20:49;;;;;;;2.43;1.63;;;;;;;;;;5027916;28;20239;-52
2023/03/27 07:23:16;;;;;;;1.60;1.50;;;;;;;;;;5030110;28;20246;-53
2023/03/27 07:25:42;;;;;;;2.43;1.50;;;;;;;;;;5026450;28;20231;-52
2023/03/27 07:28:11;;;;;;;1.63;1.53;;;;;;;;;;5027055;28;20323;-52
2023/03/27 07:30:38;;;;;;;5.43;1.57;;;;;;;;;;5025970;28;20248;-52
2023/03/27 07:33:04;;;;;;;4.87;1.67;;;;;;;;;;5025606;28;20757;-53
2023/03/27 07:35:31;;;;;;;1.67;1.57;;;;;;;;;;5011864;28;20235;-50
2023/03/27 07:37:59;;;;;;;1.77;1.27;;;;;;;;;;5028115;28;20232;-53
2023/03/27 07:40:26;;;;;;;1.57;1.47;;;;;;;;;;5026852;28;20228;-51
2023/03/27 07:42:53;;;;;;;2.00;1.50;;;;;;;;;;5026252;28;20235;-52
2023/03/27 07:45:21;;;;;;;1.10;1.00;;;;;;;;;;5028449;28;20319;-52
2023/03/27 07:47:47;;;;;;;3.70;2.00;;;;;;;;;;5017372;28;20259;-50
2023/03/27 07:50:15;;;;;;;3.03;2.03;;;;;;;;;;5017915;28;20243;-52
2023/03/27 07:52:43;;;;;;;2.20;1.93;;;;;;;;;;5025253;28;20785;-52
2023/03/27 07:55:13;;;;;;;1.53;1.27;;;;;;;;;;5026647;28;20237;-52
2023/03/27 07:57:40;;;;;;;1.50;1.40;;;;;;;;;;5025685;28;20240;-52
2023/03/27 08:00:10;;;;;;;1.77;1.50;;;;;;;;;;5025936;28;20242;-51
2023/03/27 08:02:37;;;;;;;2.00;1.53;;;;;;;;;;5021057;28;20239;-53
2023/03/27 08:05:05;;;;;;;2.03;1.30;;;;;;;;;;5027350;28;20259;-52
2023/03/27 08:07:32;;;;;;;3.80;1.40;;;;;;;;;;5025329;28;20232;-51
2023/03/27 08:09:58;;;;;;;2.30;1.47;;;;;;;;;;5025391;28;20718;-51
2023/03/27 08:12:27;;;;;;;1.80;1.40;;;;;;;;;;5024610;28;20599;-53
2023/03/27 08:14:53;;;;;;;2.33;1.60;;;;;;;;;;5023428;28;20737;-52
2023/03/27 08:17:20;;;;;;;1.57;1.47;;;;;;;;;;5024260;28;20244;-51
2023/03/27 08:19:47;;;;;;;1.20;1.07;;;;;;;;;;5018738;28;20232;-51
2023/03/27 08:22:13;;;;;;;3.20;1.20;;;;;;;;;;5023127;28;20301;-50
2023/03/27 08:24:41;;;;;;;1.80;1.20;;;;;;;;;;5023331;28;20260;-52
2023/03/27 08:27:07;;;;;;;1.40;0.90;;;;;;;;;;5023163;28;20241;-51
2023/03/27 08:29:36;;;;;;;2.00;1.30;;;;;;;;;;5032440;28;20298;-51
2023/03/27 08:32:02;;;;;;;0.97;0.97;;;;;;;;;;5018231;28;20254;-50
2023/03/27 08:34:29;;;;;;;3.37;1.30;;;;;;;;;;5011890;28;20593;-50
2023/03/27 08:36:55;;;;;;;1.53;1.33;;;;;;;;;;5020790;28;20231;-51
2023/03/27 08:39:22;;;;;;;2.23;1.67;;;;;;;;;;5020629;28;20251;-50
2023/03/27 08:41:51;;;;;;;1.50;1.17;;;;;;;;;;5019670;28;20721;-52
2023/03/27 08:44:19;;;;;;;1.10;1.00;;;;;;;;;;5023955;28;20247;-52
2023/03/27 08:46:49;;;;;;;0.83;0.83;;;;;;;;;;5021588;28;20228;-53
2023/03/27 08:49:17;;;;;;;1.87;1.17;;;;;;;;;;5018183;28;20240;-51
2023/03/27 08:51:47;;;;;;;2.97;1.30;;;;;;;;;;5018718;28;20318;-51
2023/03/27 08:54:17;;;;;;;1.50;1.40;;;;;;;;;;5019921;28;20236;-51
2023/03/27 08:56:44;;;;;;;1.63;1.43;;;;;;;;;;5019087;28;20836;-51
2023/03/27 08:59:12;;;;;;;1.93;1.50;;;;;;;;;;5022705;28;20672;-51
2023/03/27 09:01:44;;;;;;;4.13;1.20;;;;;;;;;;5024197;28;20778;-52
2023/03/27 09:04:16;;;;;;;2.23;1.40;;;;;;;;;;5023061;28;20761;-51
2023/03/27 09:06:49;;;;;;;1.00;0.90;;;;;;;;;;5019957;28;20239;-50
2023/03/27 09:09:22;;;;;;;2.97;1.20;;;;;;;;;;5020114;28;20244;-51
2023/03/27 09:11:53;;;;;;;1.67;1.33;;;;;;;;;;5021710;28;20699;-51
2023/03/27 09:14:26;;;;;;;1.90;1.50;;;;;;;;;;5023425;28;20284;-51
2023/03/27 09:16:55;;;;;;;1.97;1.40;;;;;;;;;;5019403;28;20252;-51
2023/03/27 09:19:28;;;;;;;1.80;1.20;;;;;;;;;;5018381;28;20232;-52
2023/03/27 09:21:56;;;;;;;2.43;1.40;;;;;;;;;;5020500;28;20229;-51
2023/03/27 09:24:27;;;;;;;1.20;1.10;;;;;;;;;;5023934;28;20233;-51
2023/03/27 09:26:54;;;;;;;1.10;1.00;;;;;;;;;;5022941;28;20319;-51
2023/03/27 09:29:23;;;;;;;1.40;1.30;;;;;;;;;;5021836;28;20248;-53
2023/03/27 09:31:50;;;;;;;2.20;1.23;;;;;;;;;;5022206;28;20219;-51
2023/03/27 09:34:21;;;;;;;2.30;0.90;;;;;;;;;;5022447;28;20715;-51
2023/03/27 09:36:50;;;;;;;1.23;1.13;;;;;;;;;;5020632;28;20228;-51
2023/03/27 09:39:21;;;;;;;1.03;1.00;;;;;;;;;;5024268;28;20374;-55
2023/03/27 09:41:48;;;;;;;2.00;1.20;;;;;;;;;;5024006;28;20321;-52
2023/03/27 09:44:19;;;;;;;2.17;1.10;;;;;;;;;;5024174;28;20286;-52
2023/03/27 09:46:47;;;;;;;1.37;1.13;;;;;;;;;;5015817;28;20739;-50
2023/03/27 09:49:15;;;;;;;1.10;1.00;;;;;;;;;;5020967;28;20267;-50
2023/03/27 09:51:43;;;;;;;1.33;1.20;;;;;;;;;;5019761;28;20224;-52
2023/03/27 09:54:13;;;;;;;3.43;1.20;;;;;;;;;;5024604;28;20254;-50
2023/03/27 09:56:41;;;;;;;2.70;1.13;;;;;;;;;;5027084;28;20236;-51
2023/03/27 09:59:12;;;;;;;0.93;0.93;;;;;;;;;;5024924;28;20242;-52
2023/03/27 10:01:45;;;;;;;3.27;1.27;;;;;;;;;;5025596;28;20236;-52
2023/03/27 10:04:13;;;;;;;0.80;0.80;;;;;;;;;;5021828;28;20231;-51
2023/03/27 10:06:43;;;;;;;0.70;0.70;;;;;;;;;;5005313;28;20308;-51
2023/03/27 10:09:21;;;;;;;1.20;1.10;;;;;;;;;;5012066;28;20244;-51
2023/03/27 10:11:48;;;;;;;2.57;0.97;;;;;;;;;;5025060;28;20236;-51
2023/03/27 10:14:17;;;;;;;0.97;0.70;;;;;;;;;;5014512;28;20224;-50
2023/03/27 10:16:46;;;;;;;1.03;0.90;;;;;;;;;;5024929;28;20228;-51
2023/03/27 10:19:20;;;;;;;2.50;1.20;;;;;;;;;;5015522;28;20678;-50
2023/03/27 10:21:47;;;;;;;1.63;1.10;;;;;;;;;;5002315;28;20299;-51
2023/03/27 10:24:20;;;;;;;2.83;0.97;;;;;;;;;;5015772;28;20246;-52
2023/03/27 10:26:48;;;;;;;2.47;1.40;;;;;;;;;;5007020;28;20225;-51
2023/03/27 10:29:20;;;;;;;0.90;0.90;;;;;;;;;;5023300;28;20240;-52
2023/03/27 10:31:49;;;;;;;1.63;1.37;;;;;;;;;;5020756;28;20677;-51
2023/03/27 10:34:28;;;;;;;3.03;1.37;;;;;;;;;;5026131;28;20239;-53
2023/03/27 10:36:55;;;;;;;1.83;1.00;;;;;;;;;;5026821;28;20478;-51
2023/03/27 10:39:24;;;;;;;1.57;1.20;;;;;;;;;;5022164;28;20231;-53
2023/03/27 10:41:51;;;;;;;2.80;1.20;;;;;;;;;;5020182;28;20232;-51
2023/03/27 10:44:19;;;;;;;1.23;0.93;;;;;;;;;;5020108;28;20237;-50
2023/03/27 10:46:45;;;;;;;1.03;1.03;;;;;;;;;;5018646;28;20638;-52
2023/03/27 10:49:19;;;;;;;1.20;1.10;;;;;;;;;;5024884;28;20601;-52
2023/03/27 10:51:48;;;;;;;1.07;1.00;;;;;;;;;;5020797;28;20232;-51
2023/03/27 10:54:16;;;;;;;1.10;1.00;;;;;;;;;;5023709;28;20228;-52
2023/03/27 10:56:50;;;;;;;1.73;1.47;;;;;;;;;;5021398;28;20635;-51
2023/03/27 10:59:19;;;;;;;1.60;1.50;;;;;;;;;;5018549;28;20236;-53
2023/03/27 11:01:48;;;;;;;1.80;0.90;;;;;;;;;;5010554;28;20320;-52
2023/03/27 11:04:17;;;;;;;0.80;0.80;;;;;;;;;;5019776;28;20232;-51
2023/03/27 11:06:45;;;;;;;2.23;1.43;;;;;;;;;;5015601;28;20256;-51
2023/03/27 11:09:14;;;;;;;2.60;1.20;;;;;;;;;;5021681;28;20240;-50
2023/03/27 11:11:45;;;;;;;2.53;1.03;;;;;;;;;;5024743;28;20236;-51
2023/03/27 11:14:17;;;;;;;0.90;0.90;;;;;;;;;;5028135;28;20240;-52
2023/03/27 11:16:47;;;;;;;1.07;0.97;;;;;;;;;;5023691;28;20235;-50
2023/03/27 11:19:24;;;;;;;2.63;1.30;;;;;;;;;;5017903;28;20260;-52
2023/03/27 11:21:53;;;;;;;1.40;1.10;;;;;;;;;;5019459;28;20231;-52
2023/03/27 11:24:27;;;;;;;2.73;0.97;;;;;;;;;;5026511;28;20225;-51
2023/03/27 11:27:00;;;;;;;2.37;1.10;;;;;;;;;;5020217;28;20767;-51
2023/03/27 11:29:30;;;;;;;1.13;1.03;;;;;;;;;;5020386;28;20240;-52
2023/03/27 11:32:02;;;;;;;1.90;0.97;;;;;;;;;;5019832;28;20233;-51
2023/03/27 11:34:32;;;;;;;1.63;0.83;;;;;;;;;;5017610;28;20244;-51
2023/03/27 11:37:01;;;;;;;4.67;1.00;;;;;;;;;;5022446;28;20294;-52
2023/03/27 11:39:30;;;;;;;1.30;0.80;;;;;;;;;;5017589;28;20307;-51
2023/03/27 11:41:58;;;;;;;1.23;0.90;;;;;;;;;;5022805;28;20232;-53
2023/03/27 11:44:29;;;;;;;1.30;1.20;;;;;;;;;;5009625;28;20284;-52
2023/03/27 11:47:10;;;;;;;1.30;1.20;;;;;;;;;;5013206;28;20224;-51
2023/03/27 11:49:49;;;;;;;2.50;0.90;;;;;;;;;;5023491;28;20243;-53
2023/03/27 11:52:21;;;;;;;1.53;1.10;;;;;;;;;;5025356;28;20734;-51
2023/03/27 11:54:51;;;;;;;2.77;0.80;;;;;;;;;;5012645;28;20723;-52
2023/03/27 11:57:21;;;;;;;1.00;0.90;;;;;;;;;;5005494;28;20254;-52
2023/03/27 11:59:59;;;;;;;2.63;1.17;;;;;;;;;;5018355;28;20777;-51
2023/03/27 12:02:44;;;;;;;1.40;1.03;;;;;;;;;;5025828;28;20247;-51
2023/03/27 12:05:16;;;;;;;2.87;1.13;;;;;;;;;;5023115;28;20247;-51
2023/03/27 12:07:48;;;;;;;1.00;0.77;;;;;;;;;;5016717;28;20237;-52
2023/03/27 12:10:19;;;;;;;2.47;1.20;;;;;;;;;;5022302;28;20323;-51
2023/03/27 12:12:52;;;;;;;1.53;0.87;;;;;;;;;;5025670;28;20225;-51
2023/03/27 12:15:32;;;;;;;1.63;1.10;;;;;;;;;;5016615;28;20290;-51
2023/03/27 12:18:03;;;;;;;1.20;1.00;;;;;;;;;;5026442;28;20318;-51
2023/03/27 12:20:42;;;;;;;1.73;1.30;;;;;;;;;;5024909;28;20247;-52
2023/03/27 12:23:19;;;;;;;1.13;1.10;;;;;;;;;;5026033;28;20365;-50
2023/03/27 12:25:56;;;;;;;2.23;1.23;;;;;;;;;;5024231;28;20278;-52
2023/03/27 12:28:28;;;;;;;2.33;1.10;;;;;;;;;;5016806;28;20310;-51
2023/03/27 12:30:58;;;;;;;1.67;1.00;;;;;;;;;;5025839;28;20262;-51
2023/03/27 12:33:45;;;;;;;0.97;0.87;;;;;;;;;;5020418;28;20237;-51
2023/03/27 12:36:15;;;;;;;1.20;1.00;;;;;;;;;;5010885;28;20240;-51
2023/03/27 12:38:43;;;;;;;3.00;0.73;;;;;;;;;;5023558;28;20233;-52
2023/03/27 12:41:19;;;;;;;1.90;0.90;;;;;;;;;;5029311;28;20297;-52
2023/03/27 12:43:46;;;;;;;2.37;0.90;;;;;;;;;;5021231;28;20264;-50
2023/03/27 12:46:19;;;;;;;1.27;0.90;;;;;;;;;;5024952;28;20244;-51
2023/03/27 12:48:55;;;;;;;0.80;0.80;;;;;;;;;;5022145;28;20857;-50
2023/03/27 12:51:36;;;;;;;0.67;0.67;;;;;;;;;;5021495;28;20224;-52
2023/03/27 12:54:12;;;;;;;2.13;1.13;;;;;;;;;;5020808;28;20317;-51
2023/03/27 12:56:39;;;;;;;1.53;0.87;;;;;;;;;;5018229;28;20243;-52
2023/03/27 12:59:19;;;;;;;1.87;1.23;;;;;;;;;;5011575;28;20244;-50
2023/03/27 13:01:51;;;;;;;2.40;1.07;;;;;;;;;;5014727;28;20358;-52
2023/03/27 13:04:38;;;;;;;3.00;1.20;;;;;;;;;;5022357;28;20232;-51
2023/03/27 13:07:12;;;;;;;1.63;0.73;;;;;;;;;;4981577;28;20329;-52
2023/03/27 13:09:52;;;;;;;0.93;0.90;;;;;;;;;;5021424;28;20229;-52
2023/03/27 13:12:33;;;;;;;1.17;0.73;;;;;;;;;;5020110;28;20324;-50
2023/03/27 13:15:14;;;;;;;1.70;0.93;;;;;;;;;;5019506;28;20607;-51
2023/03/27 13:17:49;;;;;;;1.13;0.60;;;;;;;;;;5004122;28;20312;-52
2023/03/27 13:20:21;;;;;;;1.07;0.77;;;;;;;;;;5011545;28;20293;-52
2023/03/27 13:22:57;;;;;;;0.60;0.60;;;;;;;;;;5004712;28;20248;-52
2023/03/27 13:25:28;;;;;;;1.27;0.80;;;;;;;;;;5009012;28;20239;-52
2023/03/27 13:28:11;;;;;;;2.77;1.00;;;;;;;;;;5007397;28;20224;-51
2023/03/27 13:30:46;;;;;;;2.43;0.80;;;;;;;;;;5009329;28;20240;-52
2023/03/27 13:33:16;;;;;;;1.60;1.30;;;;;;;;;;5004573;28;20375;-51
2023/03/27 13:35:50;;;;;;;1.43;1.33;;;;;;;;;;5017244;28;20904;-51
2023/03/27 13:38:38;;;;;;;1.70;1.60;;;;;;;;;;5021785;28;20244;-52
2023/03/27 13:41:23;;;;;;;1.80;1.60;;;;;;;;;;5013647;28;20229;-52
2023/03/27 13:43:50;;;;;;;2.73;1.40;;;;;;;;;;4999726;28;20298;-53
2023/03/27 13:46:23;;;;;;;1.17;0.97;;;;;;;;;;5011273;28;20319;-51
2023/03/27 13:49:13;;;;;;;1.03;0.90;;;;;;;;;;5020496;28;20324;-51
2023/03/27 13:51:56;;;;;;;0.77;0.77;;;;;;;;;;4986503;28;20318;-52
2023/03/27 13:54:37;;;;;;;0.97;0.80;;;;;;;;;;5015888;28;20232;-51
2023/03/27 13:57:11;;;;;;;1.37;0.70;;;;;;;;;;5018880;28;20268;-54
2023/03/27 14:00:01;;;;;;;2.37;1.00;;;;;;;;;;5011781;28;20240;-51
2023/03/27 14:02:45;;;;;;;0.77;0.60;;;;;;;;;;4996153;28;20240;-51
2023/03/27 14:05:20;;;;;;;0.97;0.90;;;;;;;;;;5004330;28;20710;-51
2023/03/27 14:08:00;;;;;;;0.63;0.63;;;;;;;;;;5006842;28;20230;-52
2023/03/27 14:10:46;;;;;;;2.03;1.00;;;;;;;;;;5015386;28;20248;-52
2023/03/27 14:13:22;;;;;;;0.90;0.87;;;;;;;;;;5002216;28;20282;-52
2023/03/27 14:15:55;;;;;;;3.07;0.93;;;;;;;;;;5007882;28;20240;-52
2023/03/27 14:18:49;;;;;;;3.40;1.07;;;;;;;;;;4996065;28;20229;-51
2023/03/27 14:21:16;;;;;;;1.43;1.00;;;;;;;;;;4977035;28;20240;-52
2023/03/27 14:23:46;;;;;;;1.20;1.10;;;;;;;;;;5007177;28;20256;-53
2023/03/27 14:26:17;;;;;;;1.80;1.10;;;;;;;;;;5011071;28;20363;-52
2023/03/27 14:28:50;;;;;;;2.20;1.07;;;;;;;;;;5010516;28;20229;-52
2023/03/27 14:31:18;;;;;;;3.67;1.13;;;;;;;;;;5016100;28;20266;-52
2023/03/27 14:33:48;;;;;;;3.23;1.67;;;;;;;;;;5015054;28;20327;-52
2023/03/27 14:36:15;;;;;;;2.63;1.03;;;;;;;;;;5016281;28;20239;-52
2023/03/27 14:38:42;;;;;;;0.90;0.73;;;;;;;;;;5016393;28;20255;-51
2023/03/27 14:41:17;;;;;;;1.33;1.20;;;;;;;;;;5017267;28;20252;-51
2023/03/27 14:43:45;;;;;;;2.17;1.03;;;;;;;;;;5016052;28;20298;-50
2023/03/27 14:46:14;;;;;;;3.00;1.20;;;;;;;;;;5021145;28;20243;-51
2023/03/27 14:48:43;;;;;;;1.57;1.20;;;;;;;;;;5021408;28;20236;-52
2023/03/27 14:51:12;;;;;;;1.60;1.00;;;;;;;;;;5019743;28;20237;-53
2023/03/27 14:53:43;;;;;;;1.20;0.87;;;;;;;;;;5016686;28;20264;-50
2023/03/27 14:56:18;;;;;;;1.57;0.93;;;;;;;;;;5024381;28;20639;-51
2023/03/27 14:58:46;;;;;;;1.33;0.97;;;;;;;;;;5025886;28;20232;-54
2023/03/27 15:01:15;;;;;;;4.10;1.67;;;;;;;;;;5024005;28;20762;-51